sensor_id;sensor_type;location;lat;lon;timestamp;temperature;humidity
68826;DHT22;55841;53.392;10.086;2023-02-28T00:02:15;2.00;76.60
68826;DHT22;55841;53.392;10.086;2023-02-28T00:04:40;1.90;76.80
68826;DHT22;55841;53.392;10.086;2023-02-28T00:07:06;1.90;77.00
68826;DHT22;55841;53.392;10.086;2023-02-28T00:09:31;1.90;77.10
68826;DHT22;55841;53.392;10.086;2023-02-28T00:11:57;-50.00;1.00
68826;DHT22;55841;53.392;10.086;2023-02-28T00:14:22;1.80;76.90
68826;DHT22;55841;53.392;10.086;2023-02-28T00:16:48;1.70;76.80
68826;DHT22;55841;53.392;10.086;2023-02-28T00:19:13;1.60;76.70
68826;DHT22;55841;53.392;10.086;2023-02-28T00:21:39;1.60;77.10
68826;DHT22;55841;53.392;10.086;2023-02-28T00:24:04;1.50;77.30
68826;DHT22;55841;53.392;10.086;2023-02-28T00:26:30;1.50;77.40
68826;DHT22;55841;53.392;10.086;2023-02-28T00:28:55;1.40;77.40
68826;DHT22;55841;53.392;10.086;2023-02-28T00:31:21;1.40;77.40
68826;DHT22;55841;53.392;10.086;2023-02-28T00:33:46;1.40;77.10
68826;DHT22;55841;53.392;10.086;2023-02-28T00:36:12;-50.00;1.00
68826;DHT22;55841;53.392;10.086;2023-02-28T00:38:38;1.20;77.00
68826;DHT22;55841;53.392;10.086;2023-02-28T00:41:04;1.10;77.10
68826;DHT22;55841;53.392;10.086;2023-02-28T00:43:32;1.00;77.40
68826;DHT22;55841;53.392;10.086;2023-02-28T00:45:57;0.90;77.60
68826;DHT22;55841;53.392;10.086;2023-02-28T00:48:23;0.90;78.10
68826;DHT22;55841;53.392;10.086;2023-02-28T00:50:49;0.90;78.40
68826;DHT22;55841;53.392;10.086;2023-02-28T00:53:15;0.90;78.50
68826;DHT22;55841;53.392;10.086;2023-02-28T00:55:40;0.90;78.40
68826;DHT22;55841;53.392;10.086;2023-02-28T00:58:06;1.20;77.70
68826;DHT22;55841;53.392;10.086;2023-02-28T01:00:31;0.80;77.90
68826;DHT22;55841;53.392;10.086;2023-02-28T01:02:57;0.80;77.80
68826;DHT22;55841;53.392;10.086;2023-02-28T01:05:22;0.70;78.00
68826;DHT22;55841;53.392;10.086;2023-02-28T01:07:48;0.60;78.30
68826;DHT22;55841;53.392;10.086;2023-02-28T01:10:13;0.60;78.60
68826;DHT22;55841;53.392;10.086;2023-02-28T01:12:39;0.60;79.00
68826;DHT22;55841;53.392;10.086;2023-02-28T01:15:04;0.60;79.20
68826;DHT22;55841;53.392;10.086;2023-02-28T01:17:30;0.70;79.10
68826;DHT22;55841;53.392;10.086;2023-02-28T01:19:56;0.70;79.10
68826;DHT22;55841;53.392;10.086;2023-02-28T01:22:21;0.70;78.70
68826;DHT22;55841;53.392;10.086;2023-02-28T01:24:47;0.70;78.70
68826;DHT22;55841;53.392;10.086;2023-02-28T01:27:13;0.70;79.00
68826;DHT22;55841;53.392;10.086;2023-02-28T01:29:38;0.60;78.90
68826;DHT22;55841;53.392;10.086;2023-02-28T01:32:04;0.60;78.60
68826;DHT22;55841;53.392;10.086;2023-02-28T01:34:29;0.60;78.60
68826;DHT22;55841;53.392;10.086;2023-02-28T01:36:55;0.50;78.30
68826;DHT22;55841;53.392;10.086;2023-02-28T01:39:20;0.50;78.30
68826;DHT22;55841;53.392;10.086;2023-02-28T01:41:46;0.50;78.40
68826;DHT22;55841;53.392;10.086;2023-02-28T01:47:15;0.40;78.40
68826;DHT22;55841;53.392;10.086;2023-02-28T01:49:40;0.30;78.40
68826;DHT22;55841;53.392;10.086;2023-02-28T01:52:06;0.20;78.70
68826;DHT22;55841;53.392;10.086;2023-02-28T01:54:34;0.10;79.00
68826;DHT22;55841;53.392;10.086;2023-02-28T01:57:11;0.00;79.20
68826;DHT22;55841;53.392;10.086;2023-02-28T01:59:43;0.00;79.50
68826;DHT22;55841;53.392;10.086;2023-02-28T02:02:11;0.00;79.70
68826;DHT22;55841;53.392;10.086;2023-02-28T02:04:46;-0.10;80.10
68826;DHT22;55841;53.392;10.086;2023-02-28T02:07:14;0.00;80.20
68826;DHT22;55841;53.392;10.086;2023-02-28T02:09:39;0.00;80.20
68826;DHT22;55841;53.392;10.086;2023-02-28T02:12:40;0.00;79.80
68826;DHT22;55841;53.392;10.086;2023-02-28T02:17:39;-0.10;79.80
68826;DHT22;55841;53.392;10.086;2023-02-28T02:20:16;-0.10;80.00
68826;DHT22;55841;53.392;10.086;2023-02-28T02:25:30;-0.20;80.40
68826;DHT22;55841;53.392;10.086;2023-02-28T02:28:09;-0.20;80.20
68826;DHT22;55841;53.392;10.086;2023-02-28T02:30:57;-0.30;80.10
68826;DHT22;55841;53.392;10.086;2023-02-28T02:33:36;-0.40;80.00
68826;DHT22;55841;53.392;10.086;2023-02-28T02:36:19;-0.40;80.40
68826;DHT22;55841;53.392;10.086;2023-02-28T02:42:01;-0.40;81.00
68826;DHT22;55841;53.392;10.086;2023-02-28T02:47:48;-0.40;80.90
68826;DHT22;55841;53.392;10.086;2023-02-28T02:50:22;-0.50;80.80
68826;DHT22;55841;53.392;10.086;2023-02-28T02:52:53;-0.50;80.90
68826;DHT22;55841;53.392;10.086;2023-02-28T02:55:22;-0.20;80.50
68826;DHT22;55841;53.392;10.086;2023-02-28T02:57:54;-0.50;81.00
68826;DHT22;55841;53.392;10.086;2023-02-28T03:00:23;-0.60;81.30
68826;DHT22;55841;53.392;10.086;2023-02-28T03:02:51;-0.60;81.20
68826;DHT22;55841;53.392;10.086;2023-02-28T03:05:26;-0.60;81.00
68826;DHT22;55841;53.392;10.086;2023-02-28T03:07:52;-0.60;81.20
68826;DHT22;55841;53.392;10.086;2023-02-28T03:10:45;-0.60;81.20
68826;DHT22;55841;53.392;10.086;2023-02-28T03:16:35;-0.70;81.10
68826;DHT22;55841;53.392;10.086;2023-02-28T03:19:13;-0.70;81.10
68826;DHT22;55841;53.392;10.086;2023-02-28T03:22:09;-0.70;81.40
68826;DHT22;55841;53.392;10.086;2023-02-28T03:27:53;-0.70;81.60
68826;DHT22;55841;53.392;10.086;2023-02-28T03:30:23;-0.80;81.40
68826;DHT22;55841;53.392;10.086;2023-02-28T03:35:34;-0.80;81.50
68826;DHT22;55841;53.392;10.086;2023-02-28T03:38:16;-0.80;81.30
68826;DHT22;55841;53.392;10.086;2023-02-28T03:40:47;-0.90;81.50
68826;DHT22;55841;53.392;10.086;2023-02-28T03:43:19;-0.90;81.40
68826;DHT22;55841;53.392;10.086;2023-02-28T03:45:47;-0.90;81.50
68826;DHT22;55841;53.392;10.086;2023-02-28T03:48:19;-0.90;81.70
68826;DHT22;55841;53.392;10.086;2023-02-28T03:50:49;-0.90;81.70
68826;DHT22;55841;53.392;10.086;2023-02-28T03:53:37;-0.90;81.80
68826;DHT22;55841;53.392;10.086;2023-02-28T03:56:17;-0.90;81.70
68826;DHT22;55841;53.392;10.086;2023-02-28T03:58:51;-1.00;81.50
68826;DHT22;55841;53.392;10.086;2023-02-28T04:01:35;-1.10;81.50
68826;DHT22;55841;53.392;10.086;2023-02-28T04:04:01;-1.10;81.80
68826;DHT22;55841;53.392;10.086;2023-02-28T04:06:27;-1.10;82.10
68826;DHT22;55841;53.392;10.086;2023-02-28T04:08:55;-1.10;82.30
68826;DHT22;55841;53.392;10.086;2023-02-28T04:11:38;-50.00;1.00
68826;DHT22;55841;53.392;10.086;2023-02-28T04:14:06;-1.20;82.10
68826;DHT22;55841;53.392;10.086;2023-02-28T04:16:33;-1.20;82.00
68826;DHT22;55841;53.392;10.086;2023-02-28T04:18:59;-1.20;81.90
68826;DHT22;55841;53.392;10.086;2023-02-28T04:21:24;-1.20;82.20
68826;DHT22;55841;53.392;10.086;2023-02-28T04:23:50;-1.20;82.40
68826;DHT22;55841;53.392;10.086;2023-02-28T04:26:15;-1.20;82.30
68826;DHT22;55841;53.392;10.086;2023-02-28T04:28:41;-1.20;82.00
68826;DHT22;55841;53.392;10.086;2023-02-28T04:31:06;-1.30;82.00
68826;DHT22;55841;53.392;10.086;2023-02-28T04:33:32;-1.30;82.10
68826;DHT22;55841;53.392;10.086;2023-02-28T04:38:24;-1.30;82.30
68826;DHT22;55841;53.392;10.086;2023-02-28T04:40:50;-1.40;82.10
68826;DHT22;55841;53.392;10.086;2023-02-28T04:43:16;-1.40;82.30
68826;DHT22;55841;53.392;10.086;2023-02-28T04:45:41;-1.40;82.40
68826;DHT22;55841;53.392;10.086;2023-02-28T04:48:07;-1.40;82.30
68826;DHT22;55841;53.392;10.086;2023-02-28T04:50:32;-1.40;82.60
68826;DHT22;55841;53.392;10.086;2023-02-28T04:52:58;-1.40;82.60
68826;DHT22;55841;53.392;10.086;2023-02-28T04:55:23;-1.40;82.40
68826;DHT22;55841;53.392;10.086;2023-02-28T04:57:49;-1.40;82.20
68826;DHT22;55841;53.392;10.086;2023-02-28T05:00:14;-1.40;82.10
68826;DHT22;55841;53.392;10.086;2023-02-28T05:02:40;-1.50;82.00
68826;DHT22;55841;53.392;10.086;2023-02-28T05:05:06;-1.10;80.80
68826;DHT22;55841;53.392;10.086;2023-02-28T05:07:31;-1.50;82.00
68826;DHT22;55841;53.392;10.086;2023-02-28T05:09:57;-1.50;82.50
68826;DHT22;55841;53.392;10.086;2023-02-28T05:12:22;-1.50;82.40
68826;DHT22;55841;53.392;10.086;2023-02-28T05:14:48;-1.60;82.40
68826;DHT22;55841;53.392;10.086;2023-02-28T05:17:13;-1.60;82.40
68826;DHT22;55841;53.392;10.086;2023-02-28T05:19:38;-1.70;82.60
68826;DHT22;55841;53.392;10.086;2023-02-28T05:22:04;-1.70;82.80
68826;DHT22;55841;53.392;10.086;2023-02-28T05:24:30;-1.70;82.80
68826;DHT22;55841;53.392;10.086;2023-02-28T05:26:55;-1.70;82.70
68826;DHT22;55841;53.392;10.086;2023-02-28T05:29:21;-1.70;82.50
68826;DHT22;55841;53.392;10.086;2023-02-28T05:31:47;-1.70;82.70
68826;DHT22;55841;53.392;10.086;2023-02-28T05:34:13;-50.00;1.00
68826;DHT22;55841;53.392;10.086;2023-02-28T05:36:39;-1.80;82.70
68826;DHT22;55841;53.392;10.086;2023-02-28T05:39:07;-1.80;82.60
68826;DHT22;55841;53.392;10.086;2023-02-28T05:41:33;-1.80;82.40
68826;DHT22;55841;53.392;10.086;2023-02-28T05:43:58;-1.80;82.30
68826;DHT22;55841;53.392;10.086;2023-02-28T05:46:24;-1.80;82.30
68826;DHT22;55841;53.392;10.086;2023-02-28T05:48:50;-1.80;82.60
68826;DHT22;55841;53.392;10.086;2023-02-28T05:51:16;-1.80;82.70
68826;DHT22;55841;53.392;10.086;2023-02-28T05:53:42;-1.80;82.70
68826;DHT22;55841;53.392;10.086;2023-02-28T05:56:07;-1.80;82.30
68826;DHT22;55841;53.392;10.086;2023-02-28T05:58:33;-1.80;82.30
68826;DHT22;55841;53.392;10.086;2023-02-28T06:00:59;-1.90;82.50
68826;DHT22;55841;53.392;10.086;2023-02-28T06:03:25;-1.90;82.60
68826;DHT22;55841;53.392;10.086;2023-02-28T06:05:50;-1.90;82.20
68826;DHT22;55841;53.392;10.086;2023-02-28T06:08:16;-1.90;82.00
68826;DHT22;55841;53.392;10.086;2023-02-28T06:10:41;-1.90;82.00
68826;DHT22;55841;53.392;10.086;2023-02-28T06:13:07;-2.00;82.00
68826;DHT22;55841;53.392;10.086;2023-02-28T06:15:33;-2.00;82.20
68826;DHT22;55841;53.392;10.086;2023-02-28T06:17:58;-2.00;82.40
68826;DHT22;55841;53.392;10.086;2023-02-28T06:20:26;-2.00;82.50
68826;DHT22;55841;53.392;10.086;2023-02-28T06:22:51;-2.00;82.50
68826;DHT22;55841;53.392;10.086;2023-02-28T06:28:50;-1.70;82.20
68826;DHT22;55841;53.392;10.086;2023-02-28T06:31:17;-1.70;82.90
68826;DHT22;55841;53.392;10.086;2023-02-28T06:33:44;-1.60;82.50
68826;DHT22;55841;53.392;10.086;2023-02-28T06:36:11;-1.90;83.10
68826;DHT22;55841;53.392;10.086;2023-02-28T06:38:37;-1.90;83.10
68826;DHT22;55841;53.392;10.086;2023-02-28T06:41:03;-1.90;83.00
68826;DHT22;55841;53.392;10.086;2023-02-28T06:43:31;-1.90;82.80
68826;DHT22;55841;53.392;10.086;2023-02-28T06:45:59;-1.90;82.80
68826;DHT22;55841;53.392;10.086;2023-02-28T06:48:26;-1.90;82.60
68826;DHT22;55841;53.392;10.086;2023-02-28T06:50:52;-1.80;82.60
68826;DHT22;55841;53.392;10.086;2023-02-28T06:53:17;-1.80;82.30
68826;DHT22;55841;53.392;10.086;2023-02-28T06:55:43;-1.80;82.20
68826;DHT22;55841;53.392;10.086;2023-02-28T06:58:09;-1.80;82.20
68826;DHT22;55841;53.392;10.086;2023-02-28T07:00:34;-1.80;82.20
68826;DHT22;55841;53.392;10.086;2023-02-28T07:03:00;-1.80;82.30
68826;DHT22;55841;53.392;10.086;2023-02-28T07:05:25;-1.80;82.30
68826;DHT22;55841;53.392;10.086;2023-02-28T07:07:51;-1.80;82.40
68826;DHT22;55841;53.392;10.086;2023-02-28T07:10:17;-1.70;82.50
68826;DHT22;55841;53.392;10.086;2023-02-28T07:12:42;-1.40;82.10
68826;DHT22;55841;53.392;10.086;2023-02-28T07:15:08;-1.60;82.40
68826;DHT22;55841;53.392;10.086;2023-02-28T07:17:34;-1.60;82.50
68826;DHT22;55841;53.392;10.086;2023-02-28T07:19:59;-1.20;82.00
68826;DHT22;55841;53.392;10.086;2023-02-28T07:22:25;-1.40;82.70
68826;DHT22;55841;53.392;10.086;2023-02-28T07:24:50;-1.40;82.70
68826;DHT22;55841;53.392;10.086;2023-02-28T07:27:16;-1.30;82.60
68826;DHT22;55841;53.392;10.086;2023-02-28T07:29:41;-1.30;82.60
68826;DHT22;55841;53.392;10.086;2023-02-28T07:32:07;-1.20;82.50
68826;DHT22;55841;53.392;10.086;2023-02-28T07:34:33;-0.70;81.60
68826;DHT22;55841;53.392;10.086;2023-02-28T07:36:58;-1.00;82.30
68826;DHT22;55841;53.392;10.086;2023-02-28T07:39:24;-0.90;82.30
68826;DHT22;55841;53.392;10.086;2023-02-28T07:41:49;-0.80;82.40
68826;DHT22;55841;53.392;10.086;2023-02-28T07:44:15;-0.70;82.40
68826;DHT22;55841;53.392;10.086;2023-02-28T07:46:41;-0.60;82.30
68826;DHT22;55841;53.392;10.086;2023-02-28T07:49:06;-0.30;82.30
68826;DHT22;55841;53.392;10.086;2023-02-28T07:51:32;-0.10;81.90
68826;DHT22;55841;53.392;10.086;2023-02-28T07:53:57;-0.30;82.00
68826;DHT22;55841;53.392;10.086;2023-02-28T07:56:23;-0.20;81.90
68826;DHT22;55841;53.392;10.086;2023-02-28T07:58:48;-0.10;81.80
68826;DHT22;55841;53.392;10.086;2023-02-28T08:01:14;0.00;81.70
68826;DHT22;55841;53.392;10.086;2023-02-28T08:03:40;0.10;81.70
68826;DHT22;55841;53.392;10.086;2023-02-28T08:06:07;0.20;81.50
68826;DHT22;55841;53.392;10.086;2023-02-28T08:08:33;0.30;81.40
68826;DHT22;55841;53.392;10.086;2023-02-28T08:11:03;0.40;81.30
68826;DHT22;55841;53.392;10.086;2023-02-28T08:13:29;0.50;81.10
68826;DHT22;55841;53.392;10.086;2023-02-28T08:15:55;0.70;80.70
68826;DHT22;55841;53.392;10.086;2023-02-28T08:18:21;0.80;80.60
68826;DHT22;55841;53.392;10.086;2023-02-28T08:20:47;-50.00;1.00
68826;DHT22;55841;53.392;10.086;2023-02-28T08:23:13;1.00;80.10
68826;DHT22;55841;53.392;10.086;2023-02-28T08:25:39;1.10;79.70
68826;DHT22;55841;53.392;10.086;2023-02-28T08:28:05;1.20;79.40
68826;DHT22;55841;53.392;10.086;2023-02-28T08:30:30;1.40;78.60
68826;DHT22;55841;53.392;10.086;2023-02-28T08:32:56;1.50;78.50
68826;DHT22;55841;53.392;10.086;2023-02-28T08:35:22;1.60;78.00
68826;DHT22;55841;53.392;10.086;2023-02-28T08:37:48;1.80;77.40
68826;DHT22;55841;53.392;10.086;2023-02-28T08:40:14;1.90;76.60
68826;DHT22;55841;53.392;10.086;2023-02-28T08:42:39;2.00;76.40
68826;DHT22;55841;53.392;10.086;2023-02-28T08:45:05;2.20;76.20
68826;DHT22;55841;53.392;10.086;2023-02-28T08:47:31;2.30;75.40
68826;DHT22;55841;53.392;10.086;2023-02-28T08:49:57;2.50;74.80
68826;DHT22;55841;53.392;10.086;2023-02-28T08:52:22;2.60;74.50
68826;DHT22;55841;53.392;10.086;2023-02-28T08:54:48;2.70;74.40
68826;DHT22;55841;53.392;10.086;2023-02-28T08:57:13;2.90;74.10
68826;DHT22;55841;53.392;10.086;2023-02-28T08:59:39;3.10;74.60
68826;DHT22;55841;53.392;10.086;2023-02-28T09:02:04;3.20;74.50
68826;DHT22;55841;53.392;10.086;2023-02-28T09:04:30;3.30;74.70
68826;DHT22;55841;53.392;10.086;2023-02-28T09:06:55;3.40;74.80
68826;DHT22;55841;53.392;10.086;2023-02-28T09:09:21;3.50;74.70
68826;DHT22;55841;53.392;10.086;2023-02-28T09:11:47;3.70;75.00
68826;DHT22;55841;53.392;10.086;2023-02-28T09:14:12;3.70;74.80
68826;DHT22;55841;53.392;10.086;2023-02-28T09:16:38;-50.00;1.00
68826;DHT22;55841;53.392;10.086;2023-02-28T09:19:03;4.00;75.00
68826;DHT22;55841;53.392;10.086;2023-02-28T09:21:29;4.10;74.40
68826;DHT22;55841;53.392;10.086;2023-02-28T09:23:54;4.30;74.40
68826;DHT22;55841;53.392;10.086;2023-02-28T09:26:26;4.40;73.50
68826;DHT22;55841;53.392;10.086;2023-02-28T09:28:54;4.60;72.70
68826;DHT22;55841;53.392;10.086;2023-02-28T09:31:26;4.80;72.40
68826;DHT22;55841;53.392;10.086;2023-02-28T09:33:53;4.90;71.90
68826;DHT22;55841;53.392;10.086;2023-02-28T09:36:19;5.10;70.40
68826;DHT22;55841;53.392;10.086;2023-02-28T09:38:45;5.20;67.30
68826;DHT22;55841;53.392;10.086;2023-02-28T09:41:17;5.30;68.10
68826;DHT22;55841;53.392;10.086;2023-02-28T09:43:47;5.50;65.90
68826;DHT22;55841;53.392;10.086;2023-02-28T09:46:32;5.60;63.60
68826;DHT22;55841;53.392;10.086;2023-02-28T09:49:02;5.70;62.40
68826;DHT22;55841;53.392;10.086;2023-02-28T09:54:06;6.00;66.40
68826;DHT22;55841;53.392;10.086;2023-02-28T09:56:39;6.20;66.50
68826;DHT22;55841;53.392;10.086;2023-02-28T10:02:04;6.50;63.10
68826;DHT22;55841;53.392;10.086;2023-02-28T10:04:52;6.70;61.60
68826;DHT22;55841;53.392;10.086;2023-02-28T10:07:33;6.90;61.00
68826;DHT22;55841;53.392;10.086;2023-02-28T10:10:07;7.00;60.70
68826;DHT22;55841;53.392;10.086;2023-02-28T10:12:44;7.20;60.20
68826;DHT22;55841;53.392;10.086;2023-02-28T10:15:14;7.30;57.80
68826;DHT22;55841;53.392;10.086;2023-02-28T10:17:43;-50.00;1.00
68826;DHT22;55841;53.392;10.086;2023-02-28T10:20:14;7.60;56.50
68826;DHT22;55841;53.392;10.086;2023-02-28T10:25:22;-50.00;1.00
68826;DHT22;55841;53.392;10.086;2023-02-28T10:27:50;-50.00;1.00
68826;DHT22;55841;53.392;10.086;2023-02-28T10:30:18;8.00;51.80
68826;DHT22;55841;53.392;10.086;2023-02-28T10:32:49;8.10;51.80
68826;DHT22;55841;53.392;10.086;2023-02-28T10:35:21;8.10;52.80
68826;DHT22;55841;53.392;10.086;2023-02-28T10:37:50;8.30;52.90
68826;DHT22;55841;53.392;10.086;2023-02-28T10:42:58;8.60;52.50
68826;DHT22;55841;53.392;10.086;2023-02-28T10:45:25;-50.00;1.00
68826;DHT22;55841;53.392;10.086;2023-02-28T10:48:36;8.90;48.80
68826;DHT22;55841;53.392;10.086;2023-02-28T11:03:57;9.40;47.70
68826;DHT22;55841;53.392;10.086;2023-02-28T11:06:26;9.40;47.40
68826;DHT22;55841;53.392;10.086;2023-02-28T11:08:59;9.50;47.00
68826;DHT22;55841;53.392;10.086;2023-02-28T11:11:28;9.70;47.20
68826;DHT22;55841;53.392;10.086;2023-02-28T11:13:57;9.80;47.20
68826;DHT22;55841;53.392;10.086;2023-02-28T11:16:33;10.20;47.30
68826;DHT22;55841;53.392;10.086;2023-02-28T11:18:59;10.60;46.70
68826;DHT22;55841;53.392;10.086;2023-02-28T11:21:32;10.70;45.10
68826;DHT22;55841;53.392;10.086;2023-02-28T11:24:05;10.90;46.00
68826;DHT22;55841;53.392;10.086;2023-02-28T11:26:42;11.20;45.10
68826;DHT22;55841;53.392;10.086;2023-02-28T11:31:40;-50.00;1.00
68826;DHT22;55841;53.392;10.086;2023-02-28T11:34:24;11.60;44.10
68826;DHT22;55841;53.392;10.086;2023-02-28T11:36:54;11.70;43.50
68826;DHT22;55841;53.392;10.086;2023-02-28T11:39:20;11.90;43.40
68826;DHT22;55841;53.392;10.086;2023-02-28T11:42:18;12.00;42.20
68826;DHT22;55841;53.392;10.086;2023-02-28T11:50:16;12.10;42.80
68826;DHT22;55841;53.392;10.086;2023-02-28T11:52:55;12.10;43.10
68826;DHT22;55841;53.392;10.086;2023-02-28T11:55:36;12.20;42.20
68826;DHT22;55841;53.392;10.086;2023-02-28T12:04:03;12.80;40.50
68826;DHT22;55841;53.392;10.086;2023-02-28T12:06:53;12.90;39.30
68826;DHT22;55841;53.392;10.086;2023-02-28T12:09:55;13.00;39.70
68826;DHT22;55841;53.392;10.086;2023-02-28T12:22:52;13.50;39.40
68826;DHT22;55841;53.392;10.086;2023-02-28T12:27:48;13.90;39.40
68826;DHT22;55841;53.392;10.086;2023-02-28T12:33:09;14.20;37.10
68826;DHT22;55841;53.392;10.086;2023-02-28T12:38:12;14.70;34.80
68826;DHT22;55841;53.392;10.086;2023-02-28T12:43:37;14.70;34.80
68826;DHT22;55841;53.392;10.086;2023-02-28T12:46:25;14.90;35.00
68826;DHT22;55841;53.392;10.086;2023-02-28T12:48:56;15.20;35.50
68826;DHT22;55841;53.392;10.086;2023-02-28T12:51:23;15.20;35.80
68826;DHT22;55841;53.392;10.086;2023-02-28T12:59:37;15.20;32.90
68826;DHT22;55841;53.392;10.086;2023-02-28T13:02:40;15.20;32.40
68826;DHT22;55841;53.392;10.086;2023-02-28T13:10:48;15.70;33.30
68826;DHT22;55841;53.392;10.086;2023-02-28T13:13:19;16.00;33.30
68826;DHT22;55841;53.392;10.086;2023-02-28T13:16:04;-50.00;1.00
68826;DHT22;55841;53.392;10.086;2023-02-28T13:18:50;16.30;32.40
68826;DHT22;55841;53.392;10.086;2023-02-28T13:26:17;16.20;32.00
68826;DHT22;55841;53.392;10.086;2023-02-28T13:31:14;16.20;31.80
68826;DHT22;55841;53.392;10.086;2023-02-28T13:41:42;16.60;32.50
68826;DHT22;55841;53.392;10.086;2023-02-28T13:52:36;16.80;32.10
68826;DHT22;55841;53.392;10.086;2023-02-28T13:55:01;16.70;32.50
68826;DHT22;55841;53.392;10.086;2023-02-28T14:00:28;17.10;32.70
68826;DHT22;55841;53.392;10.086;2023-02-28T14:03:34;-50.00;1.00
68826;DHT22;55841;53.392;10.086;2023-02-28T14:06:26;16.90;31.40
68826;DHT22;55841;53.392;10.086;2023-02-28T14:08:57;16.80;32.30
68826;DHT22;55841;53.392;10.086;2023-02-28T14:11:35;-50.00;1.00
68826;DHT22;55841;53.392;10.086;2023-02-28T14:14:02;17.10;33.90
68826;DHT22;55841;53.392;10.086;2023-02-28T14:19:25;17.20;31.20
68826;DHT22;55841;53.392;10.086;2023-02-28T14:22:20;16.90;32.10
68826;DHT22;55841;53.392;10.086;2023-02-28T14:31:09;16.80;32.70
68826;DHT22;55841;53.392;10.086;2023-02-28T14:34:03;17.00;32.70
68826;DHT22;55841;53.392;10.086;2023-02-28T14:36:33;17.20;31.70
68826;DHT22;55841;53.392;10.086;2023-02-28T14:41:40;17.30;32.30
68826;DHT22;55841;53.392;10.086;2023-02-28T14:46:41;17.30;31.40
68826;DHT22;55841;53.392;10.086;2023-02-28T14:49:15;17.30;32.30
68826;DHT22;55841;53.392;10.086;2023-02-28T14:51:42;17.30;31.90
68826;DHT22;55841;53.392;10.086;2023-02-28T14:54:14;17.20;32.30
68826;DHT22;55841;53.392;10.086;2023-02-28T14:56:41;17.30;31.40
68826;DHT22;55841;53.392;10.086;2023-02-28T14:59:30;17.40;31.60
68826;DHT22;55841;53.392;10.086;2023-02-28T15:04:40;-50.00;1.00
68826;DHT22;55841;53.392;10.086;2023-02-28T15:07:14;17.10;32.10
68826;DHT22;55841;53.392;10.086;2023-02-28T15:09:41;17.10;32.70
68826;DHT22;55841;53.392;10.086;2023-02-28T15:12:07;17.10;32.50
68826;DHT22;55841;53.392;10.086;2023-02-28T15:14:42;17.00;32.70
68826;DHT22;55841;53.392;10.086;2023-02-28T15:17:23;16.80;32.10
68826;DHT22;55841;53.392;10.086;2023-02-28T15:19:51;16.50;32.00
68826;DHT22;55841;53.392;10.086;2023-02-28T15:22:27;15.90;33.00
68826;DHT22;55841;53.392;10.086;2023-02-28T15:24:54;15.50;33.70
68826;DHT22;55841;53.392;10.086;2023-02-28T15:27:30;14.80;34.60
68826;DHT22;55841;53.392;10.086;2023-02-28T15:29:59;14.10;35.10
68826;DHT22;55841;53.392;10.086;2023-02-28T15:32:37;13.30;36.30
68826;DHT22;55841;53.392;10.086;2023-02-28T15:35:27;12.60;37.50
68826;DHT22;55841;53.392;10.086;2023-02-28T15:37:57;11.90;38.60
68826;DHT22;55841;53.392;10.086;2023-02-28T15:40:25;11.40;39.30
68826;DHT22;55841;53.392;10.086;2023-02-28T15:46:24;10.60;40.70
68826;DHT22;55841;53.392;10.086;2023-02-28T15:48:51;10.30;42.00
68826;DHT22;55841;53.392;10.086;2023-02-28T15:51:36;10.00;42.50
68826;DHT22;55841;53.392;10.086;2023-02-28T15:54:06;9.70;42.50
68826;DHT22;55841;53.392;10.086;2023-02-28T15:56:32;9.50;43.50
68826;DHT22;55841;53.392;10.086;2023-02-28T15:59:04;9.20;43.80
68826;DHT22;55841;53.392;10.086;2023-02-28T16:01:33;9.00;44.00
68826;DHT22;55841;53.392;10.086;2023-02-28T16:04:12;8.70;44.60
68826;DHT22;55841;53.392;10.086;2023-02-28T16:06:42;8.50;45.20
68826;DHT22;55841;53.392;10.086;2023-02-28T16:09:12;8.30;45.80
68826;DHT22;55841;53.392;10.086;2023-02-28T16:11:42;8.10;45.70
68826;DHT22;55841;53.392;10.086;2023-02-28T16:14:15;8.00;46.20
68826;DHT22;55841;53.392;10.086;2023-02-28T16:17:04;7.90;46.70
68826;DHT22;55841;53.392;10.086;2023-02-28T16:19:30;7.80;47.10
68826;DHT22;55841;53.392;10.086;2023-02-28T16:21:56;7.70;47.20
68826;DHT22;55841;53.392;10.086;2023-02-28T16:24:22;7.60;47.20
68826;DHT22;55841;53.392;10.086;2023-02-28T16:26:50;7.50;47.30
68826;DHT22;55841;53.392;10.086;2023-02-28T16:29:29;7.40;47.80
68826;DHT22;55841;53.392;10.086;2023-02-28T16:31:55;7.30;47.70
68826;DHT22;55841;53.392;10.086;2023-02-28T16:34:21;7.20;48.30
68826;DHT22;55841;53.392;10.086;2023-02-28T16:36:48;7.10;48.90
68826;DHT22;55841;53.392;10.086;2023-02-28T16:39:14;7.00;48.80
68826;DHT22;55841;53.392;10.086;2023-02-28T16:41:43;6.90;48.70
68826;DHT22;55841;53.392;10.086;2023-02-28T16:44:26;6.80;48.90
68826;DHT22;55841;53.392;10.086;2023-02-28T16:46:52;6.70;49.20
68826;DHT22;55841;53.392;10.086;2023-02-28T16:49:18;6.60;49.70
68826;DHT22;55841;53.392;10.086;2023-02-28T16:51:43;6.50;49.90
68826;DHT22;55841;53.392;10.086;2023-02-28T16:54:09;6.30;50.40
68826;DHT22;55841;53.392;10.086;2023-02-28T16:56:35;6.20;50.90
68826;DHT22;55841;53.392;10.086;2023-02-28T16:59:01;6.00;51.40
68826;DHT22;55841;53.392;10.086;2023-02-28T17:01:28;5.80;51.90
68826;DHT22;55841;53.392;10.086;2023-02-28T17:03:53;5.70;52.40
68826;DHT22;55841;53.392;10.086;2023-02-28T17:06:22;5.50;52.90
68826;DHT22;55841;53.392;10.086;2023-02-28T17:08:51;5.40;53.60
68826;DHT22;55841;53.392;10.086;2023-02-28T17:11:18;5.30;54.30
68826;DHT22;55841;53.392;10.086;2023-02-28T17:13:44;5.20;54.70
68826;DHT22;55841;53.392;10.086;2023-02-28T17:16:29;5.00;54.90
68826;DHT22;55841;53.392;10.086;2023-02-28T17:18:59;4.80;55.60
68826;DHT22;55841;53.392;10.086;2023-02-28T17:21:25;4.70;55.80
68826;DHT22;55841;53.392;10.086;2023-02-28T17:23:50;4.60;56.30
68826;DHT22;55841;53.392;10.086;2023-02-28T17:26:17;4.60;56.80
68826;DHT22;55841;53.392;10.086;2023-02-28T17:28:43;4.40;57.00
68826;DHT22;55841;53.392;10.086;2023-02-28T17:31:09;4.30;57.40
68826;DHT22;55841;53.392;10.086;2023-02-28T17:33:35;4.20;57.80
68826;DHT22;55841;53.392;10.086;2023-02-28T17:36:01;4.10;58.40
68826;DHT22;55841;53.392;10.086;2023-02-28T17:38:26;4.00;58.70
68826;DHT22;55841;53.392;10.086;2023-02-28T17:40:52;3.90;59.00
68826;DHT22;55841;53.392;10.086;2023-02-28T17:43:17;3.70;59.20
68826;DHT22;55841;53.392;10.086;2023-02-28T17:45:43;3.60;59.70
68826;DHT22;55841;53.392;10.086;2023-02-28T17:48:11;3.50;59.90
68826;DHT22;55841;53.392;10.086;2023-02-28T17:50:36;3.50;60.80
68826;DHT22;55841;53.392;10.086;2023-02-28T17:53:02;3.50;61.00
68826;DHT22;55841;53.392;10.086;2023-02-28T17:55:27;3.40;60.80
68826;DHT22;55841;53.392;10.086;2023-02-28T17:57:53;3.30;60.90
68826;DHT22;55841;53.392;10.086;2023-02-28T18:00:19;3.20;61.00
68826;DHT22;55841;53.392;10.086;2023-02-28T18:02:45;3.10;61.30
68826;DHT22;55841;53.392;10.086;2023-02-28T18:05:10;3.00;61.90